Time;durP1;ratioP1;P1;durP2;ratioP2;P2;SDS_P1;SDS_P2;PMS_P1;PMS_P2;Temp;Humidity;BMP_temperature;BMP_pressure;BME280_temperature;BME280_humidity;BME280_pressure;Samples;Min_cycle;Max_cycle;Signal;HPM_P1;HPM_P2
2022/04/29 00:00:34;;;;;;;9.50;4.35;;;12.10;80.20;;;;;;5107549;28;20048;-68
2022/04/29 00:03:01;;;;;;;12.30;4.97;;;12.10;80.30;;;;;;5111273;28;20035;-68
2022/04/29 00:05:26;;;;;;;8.27;4.60;;;12.10;80.40;;;;;;5113530;28;20486;-68
2022/04/29 00:07:52;;;;;;;9.10;3.92;;;12.10;80.40;;;;;;5112721;28;20032;-68
2022/04/29 00:10:19;;;;;;;10.60;3.78;;;12.00;80.30;;;;;;5113792;28;20035;-68
2022/04/29 00:12:46;;;;;;;8.95;4.28;;;12.00;80.40;;;;;;5113635;28;20035;-68
2022/04/29 00:15:14;;;;;;;8.60;5.05;;;12.00;80.50;;;;;;5112367;28;20039;-68
2022/04/29 00:17:41;;;;;;;8.85;4.35;;;12.00;80.50;;;;;;5113480;28;20046;-68
2022/04/29 00:20:08;;;;;;;12.20;4.50;;;11.90;80.50;;;;;;5111514;28;20039;-68
2022/04/29 00:22:34;;;;;;;20.58;5.40;;;11.90;80.50;;;;;;5111023;28;20035;-68
2022/04/29 00:25:02;;;;;;;15.00;3.63;;;11.90;81.00;;;;;;5107104;28;20051;-68
2022/04/29 00:27:27;;;;;;;13.88;3.80;;;11.90;80.30;;;;;;5110337;28;20691;-68
2022/04/29 00:29:53;;;;;;;6.40;3.70;;;11.90;80.30;;;;;;5109480;28;20077;-68
2022/04/29 00:32:19;;;;;;;8.45;3.47;;;11.80;80.20;;;;;;5112996;28;20031;-68
2022/04/29 00:34:45;;;;;;;6.45;3.55;;;11.90;80.30;;;;;;5112767;28;20032;-68
2022/04/29 00:37:11;;;;;;;7.88;3.55;;;11.90;80.30;;;;;;5112340;28;20039;-68
2022/04/29 00:39:37;;;;;;;11.95;3.53;;;11.80;80.30;;;;;;5113116;28;20028;-68
2022/04/29 00:42:21;;;;;;;6.65;3.13;;;11.80;80.20;;;;;;5110743;28;20386;-68
2022/04/29 00:44:48;;;;;;;6.13;3.20;;;11.80;80.20;;;;;;5113215;28;20024;-68
2022/04/29 00:47:19;;;;;;;8.48;3.13;;;11.80;80.20;;;;;;5112913;28;20042;-68
2022/04/29 00:49:46;;;;;;;4.65;2.83;;;11.80;80.30;;;;;;5109855;28;20080;-68
2022/04/29 00:52:19;;;;;;;13.57;3.63;;;11.80;80.30;;;;;;5112560;28;20043;-68
2022/04/29 00:54:55;;;;;;;5.90;3.20;;;11.80;80.30;;;;;;5099367;28;20362;-67
2022/04/29 00:57:28;;;;;;;6.07;2.83;;;11.80;80.30;;;;;;5112440;28;20031;-68
2022/04/29 01:00:08;;;;;;;12.00;2.58;;;11.80;80.40;;;;;;5110821;28;20067;-68
2022/04/29 01:02:38;;;;;;;13.63;3.00;;;11.80;80.40;;;;;;5112408;28;20036;-68
2022/04/29 01:05:05;;;;;;;12.60;3.72;;;11.80;80.30;;;;;;5111985;28;20034;-68
2022/04/29 01:07:33;;;;;;;9.82;3.03;;;11.80;80.40;;;;;;5098975;27;20446;-68
2022/04/29 01:09:59;;;;;;;6.75;2.80;;;11.70;80.30;;;;;;5111625;28;20095;-68
2022/04/29 01:12:27;;;;;;;7.78;2.65;;;11.70;80.30;;;;;;5111169;28;20127;-68
2022/04/29 01:14:58;;;;;;;5.43;2.47;;;11.70;80.40;;;;;;5110617;28;20118;-68
2022/04/29 01:17:29;;;;;;;9.30;2.42;;;11.70;80.40;;;;;;5110592;28;20027;-68
2022/04/29 01:19:55;;;;;;;11.63;2.60;;;11.70;80.40;;;;;;5110721;28;20505;-68
2022/04/29 01:22:20;;;;;;;9.50;2.47;;;11.70;80.40;;;;;;5111082;28;20067;-68
2022/04/29 01:24:50;;;;;;;4.45;2.35;;;11.70;80.50;;;;;;5106614;28;20020;-68
2022/04/29 01:27:16;;;;;;;8.70;3.20;;;11.70;80.60;;;;;;5100776;28;20055;-68
2022/04/29 01:29:45;;;;;;;6.38;2.80;;;11.70;80.50;;;;;;5111992;28;20054;-68
2022/04/29 01:32:11;;;;;;;4.50;2.33;;;11.60;80.40;;;;;;5110256;28;20032;-68
2022/04/29 01:34:39;;;;;;;9.50;2.60;;;11.60;80.40;;;;;;5110421;28;20020;-68
2022/04/29 01:37:06;;;;;;;3.65;2.40;;;11.60;80.50;;;;;;5101845;28;20032;-68
2022/04/29 01:39:35;;;;;;;6.93;2.60;;;11.60;81.00;;;;;;5091997;28;20028;-68
2022/04/29 01:42:01;;;;;;;10.07;2.85;;;11.60;80.50;;;;;;5100621;28;20038;-68
2022/04/29 01:44:26;;;;;;;9.07;2.75;;;11.60;80.40;;;;;;5093310;28;20467;-68
2022/04/29 01:46:52;;;;;;;6.75;2.50;;;11.60;80.50;;;;;;5109829;28;20426;-68
2022/04/29 01:49:44;;;;;;;13.80;2.70;;;11.50;80.50;;;;;;5080160;28;20028;-68
2022/04/29 01:52:10;;;;;;;5.43;2.53;;;11.50;80.40;;;;;;5096501;28;20475;-68
2022/04/29 01:54:36;;;;;;;7.95;2.33;;;11.50;80.40;;;;;;5109898;28;20016;-67
2022/04/29 01:57:04;;;;;;;7.05;3.03;;;11.50;80.50;;;;;;5110119;28;20030;-68
2022/04/29 01:59:31;;;;;;;8.88;2.78;;;11.50;80.50;;;;;;5109728;28;20380;-68
2022/04/29 02:02:06;;;;;;;9.63;2.58;;;11.50;80.60;;;;;;5096574;28;20096;-68
2022/04/29 02:04:33;;;;;;;6.93;2.50;;;11.50;80.60;;;;;;5111693;28;20062;-68
2022/04/29 02:06:59;;;;;;;5.03;2.38;;;11.50;80.70;;;;;;5109293;28;20023;-68
2022/04/29 02:09:24;;;;;;;6.05;2.53;;;11.50;80.80;;;;;;5101939;28;20028;-68
2022/04/29 02:12:11;;;;;;;12.52;2.88;;;11.50;80.80;;;;;;5092232;28;20025;-68
2022/04/29 02:14:55;;;;;;;9.90;2.33;;;11.40;80.80;;;;;;5093789;28;20039;-67
2022/04/29 02:17:25;;;;;;;7.55;2.65;;;11.50;80.80;;;;;;5109314;28;20028;-68
2022/04/29 02:19:51;;;;;;;8.88;2.13;;;11.50;81.00;;;;;;5109895;28;20024;-68
2022/04/29 02:22:16;;;;;;;7.80;2.42;;;11.40;81.50;;;;;;5099248;28;20047;-68
2022/04/29 02:24:43;;;;;;;6.35;2.60;;;11.40;81.00;;;;;;5102496;28;20025;-68
2022/04/29 02:27:09;;;;;;;7.57;3.13;;;11.40;81.00;;;;;;5101473;28;20058;-67
2022/04/29 02:29:38;;;;;;;7.63;2.45;;;11.30;81.00;;;;;;5103436;28;20035;-68
2022/04/29 02:32:11;;;;;;;4.72;2.72;;;11.30;81.00;;;;;;5103257;28;20027;-68
2022/04/29 02:34:37;;;;;;;6.90;2.58;;;11.40;81.10;;;;;;5107090;28;20051;-68
2022/04/29 02:37:04;;;;;;;4.05;2.30;;;11.30;81.10;;;;;;5101435;28;20044;-68
2022/04/29 02:39:31;;;;;;;5.70;2.33;;;11.30;81.20;;;;;;5091544;28;20024;-68
2022/04/29 02:41:57;;;;;;;8.82;2.90;;;11.30;81.30;;;;;;5108253;28;20057;-68
2022/04/29 02:44:23;;;;;;;7.30;2.70;;;11.30;81.30;;;;;;5111058;28;20059;-68
2022/04/29 02:47:07;;;;;;;3.88;2.38;;;11.30;81.40;;;;;;5109708;28;20032;-68
2022/04/29 02:49:38;;;;;;;;;;;11.30;81.50;;;;;;5109458;28;20047;-68
2022/04/29 02:52:07;;;;;;;8.45;2.60;;;11.30;81.30;;;;;;5110957;28;19912;-68
2022/04/29 02:54:33;;;;;;;9.95;2.40;;;11.20;81.30;;;;;;5096538;28;20502;-68
2022/04/29 02:56:59;;;;;;;6.05;2.65;;;11.20;81.40;;;;;;5108059;28;20107;-68
2022/04/29 02:59:33;;;;;;;13.80;2.70;;;11.20;81.60;;;;;;5099493;28;20055;-68
2022/04/29 03:01:58;;;;;;;8.23;2.50;;;11.10;81.60;;;;;;5109924;28;20035;-68
2022/04/29 03:04:25;;;;;;;7.03;2.95;;;11.10;81.70;;;;;;5109048;28;20494;-68
2022/04/29 03:06:52;;;;;;;5.30;2.58;;;11.10;81.70;;;;;;5106490;28;20058;-68
2022/04/29 03:09:17;;;;;;;9.65;3.33;;;11.10;81.70;;;;;;5100686;28;20035;-68
2022/04/29 03:11:43;;;;;;;12.77;3.47;;;11.10;81.70;;;;;;5108632;28;20036;-68
2022/04/29 03:14:09;;;;;;;6.93;2.88;;;11.00;81.70;;;;;;5109541;28;20023;-68
2022/04/29 03:16:36;;;;;;;7.57;2.55;;;11.10;81.80;;;;;;5095477;28;20492;-69
2022/04/29 03:19:01;;;;;;;5.60;2.53;;;11.10;81.80;;;;;;5098591;28;20199;-68
2022/04/29 03:21:27;;;;;;;4.78;2.60;;;11.00;81.80;;;;;;5106758;28;20035;-68
2022/04/29 03:23:53;;;;;;;10.10;2.80;;;11.10;81.80;;;;;;5108762;28;20028;-68
2022/04/29 03:26:19;;;;;;;8.23;2.95;;;11.00;81.70;;;;;;5092044;28;20481;-68
2022/04/29 03:28:45;;;;;;;6.45;2.83;;;11.00;81.70;;;;;;5104787;28;20035;-68
2022/04/29 03:31:11;;;;;;;9.50;3.00;;;11.00;81.80;;;;;;5095082;28;20027;-68
2022/04/29 03:33:56;;;;;;;6.70;3.10;;;11.00;81.90;;;;;;5104452;28;20043;-68
2022/04/29 03:36:22;;;;;;;8.73;3.22;;;11.00;81.90;;;;;;5108791;28;20028;-68
2022/04/29 03:38:56;;;;;;;5.90;3.20;;;11.00;82.10;;;;;;5093617;28;20032;-68
2022/04/29 03:41:23;;;;;;;4.63;2.78;;;11.00;82.10;;;;;;5110297;28;20035;-68
2022/04/29 03:43:49;;;;;;;5.97;2.30;;;11.00;82.10;;;;;;5113091;28;20364;-68
2022/04/29 03:46:22;;;;;;;5.63;2.80;;;11.00;82.00;;;;;;5111940;28;20444;-68
2022/04/29 03:51:53;;;;;;;4.57;2.40;;;11.00;81.90;;;;;;5112469;28;20006;-68
2022/04/29 03:54:19;;;;;;;4.78;2.97;;;11.00;82.40;;;;;;5112565;28;20092;-68
2022/04/29 03:56:52;;;;;;;6.60;2.90;;;11.00;82.00;;;;;;5112798;28;20027;-68
2022/04/29 03:59:19;;;;;;;5.30;2.75;;;11.00;82.20;;;;;;5111741;28;20395;-68
2022/04/29 04:01:45;;;;;;;9.10;3.45;;;11.00;82.20;;;;;;5112537;28;20047;-67
2022/04/29 04:04:11;;;;;;;5.13;2.70;;;11.10;82.30;;;;;;5112270;28;20378;-67
2022/04/29 04:06:52;;;;;;;5.93;2.90;;;11.00;82.20;;;;;;5099687;28;20035;-68
2022/04/29 04:09:24;;;;;;;7.47;2.97;;;11.00;82.30;;;;;;5101375;28;20479;-68
2022/04/29 04:11:53;;;;;;;8.93;3.08;;;11.00;82.40;;;;;;5098737;28;20118;-69
2022/04/29 04:14:51;;;;;;;5.55;3.20;;;11.10;82.50;;;;;;5111067;28;20035;-68
2022/04/29 04:17:17;;;;;;;7.03;2.78;;;11.10;82.60;;;;;;5100856;28;20084;-67
2022/04/29 04:19:43;;;;;;;4.70;2.55;;;11.00;82.60;;;;;;5113428;28;20459;-68
2022/04/29 04:22:09;;;;;;;8.27;2.78;;;11.10;82.60;;;;;;5111341;28;20550;-68
2022/04/29 04:24:35;;;;;;;8.82;2.85;;;11.00;82.60;;;;;;5112129;28;20140;-68
2022/04/29 04:27:02;;;;;;;7.35;2.92;;;11.10;82.70;;;;;;5112691;28;20052;-68
2022/04/29 04:29:27;;;;;;;5.45;3.22;;;11.10;82.80;;;;;;5096157;28;20095;-68
2022/04/29 04:31:53;;;;;;;7.25;2.88;;;11.10;82.80;;;;;;5100909;28;20034;-68
2022/04/29 04:37:07;;;;;;;6.72;3.20;;;11.10;83.00;;;;;;5100625;28;20024;-68
2022/04/29 04:39:32;;;;;;;5.68;3.08;;;11.10;83.00;;;;;;5107062;28;20019;-69
2022/04/29 04:42:05;;;;;;;10.48;2.63;;;11.10;83.10;;;;;;5105602;28;20039;-69
2022/04/29 04:44:45;;;;;;;9.10;3.10;;;11.10;83.30;;;;;;5095918;28;20380;-68
2022/04/29 04:47:11;;;;;;;5.05;3.10;;;11.20;83.50;;;;;;5093841;28;20020;-69
2022/04/29 04:49:59;;;;;;;9.05;3.13;;;11.20;83.60;;;;;;5098824;28;20035;-68
2022/04/29 04:52:28;;;;;;;7.00;2.85;;;11.20;83.60;;;;;;5097934;28;20055;-68
2022/04/29 04:54:53;;;;;;;4.82;2.40;;;11.20;83.70;;;;;;5097812;28;20100;-69
2022/04/29 04:57:21;;;;;;;9.93;3.42;;;11.30;83.90;;;;;;5096946;28;20696;-69
2022/04/29 04:59:47;;;;;;;6.57;3.20;;;11.30;83.90;;;;;;5100706;28;20066;-69
2022/04/29 05:02:13;;;;;;;10.68;3.05;;;11.20;83.90;;;;;;5095408;28;20039;-69
2022/04/29 05:04:58;;;;;;;6.22;3.30;;;11.20;84.00;;;;;;5099698;28;20032;-69
2022/04/29 05:07:47;;;;;;;7.32;2.95;;;11.30;84.10;;;;;;5104090;28;20077;-68
2022/04/29 05:10:16;;;;;;;8.30;3.13;;;11.30;84.20;;;;;;5104709;28;20019;-69
2022/04/29 05:12:43;;;;;;;6.00;3.22;;;11.30;84.40;;;;;;5104031;28;20043;-69
2022/04/29 05:15:29;;;;;;;7.50;3.13;;;11.30;84.50;;;;;;5104711;28;20024;-69
2022/04/29 05:17:55;;;;;;;7.88;3.08;;;11.30;84.60;;;;;;5098578;28;20028;-70
2022/04/29 05:20:26;;;;;;;6.65;3.60;;;11.30;84.70;;;;;;5115466;27;20379;-70
2022/04/29 05:22:52;;;;;;;8.00;3.08;;;11.40;84.80;;;;;;5101153;28;20043;-67
2022/04/29 05:25:18;;;;;;;6.47;2.83;;;11.40;84.90;;;;;;5108924;27;20554;-69
2022/04/29 05:28:02;;;;;;;;;;;11.50;85.10;;;;;;5102089;28;20699;-70
2022/04/29 05:30:40;;;;;;;6.90;2.80;;;11.50;84.70;;;;;;5096565;28;19949;-69
2022/04/29 05:33:22;;;;;;;8.50;2.67;;;11.50;84.80;;;;;;5102311;28;20096;-70
2022/04/29 05:36:14;;;;;;;5.80;2.20;;;11.50;85.00;;;;;;5089418;28;20051;-70
2022/04/29 05:44:28;;;;;;;7.90;2.75;;;11.40;85.20;;;;;;5105133;28;20024;-69
2022/04/29 05:46:53;;;;;;;6.03;2.42;;;11.40;85.40;;;;;;5107580;28;20024;-69
2022/04/29 05:49:22;;;;;;;6.50;2.78;;;11.40;85.70;;;;;;5101295;28;20476;-69
2022/04/29 05:51:48;;;;;;;4.95;2.35;;;11.40;85.60;;;;;;5101784;28;20099;-69
2022/04/29 05:54:16;;;;;;;7.38;2.20;;;11.40;85.50;;;;;;5107061;28;20023;-68
2022/04/29 05:56:41;;;;;;;3.22;1.88;;;11.40;85.30;;;;;;5102008;28;20077;-69
2022/04/29 05:59:11;;;;;;;7.25;2.45;;;11.40;85.30;;;;;;5102970;28;20120;-69
2022/04/29 06:02:12;;;;;;;8.88;1.98;;;11.40;85.20;;;;;;5088569;28;20506;-70
2022/04/29 06:04:54;;;;;;;3.25;2.00;;;11.50;85.10;;;;;;5106467;28;20027;-69
2022/04/29 06:07:20;;;;;;;9.40;2.33;;;11.50;85.00;;;;;;5102983;28;20035;-69
2022/04/29 06:09:46;;;;;;;15.10;2.35;;;11.50;84.90;;;;;;5118432;27;20027;-73
2022/04/29 06:12:13;;;;;;;5.55;1.70;;;11.40;84.90;;;;;;5090490;28;20147;-70
2022/04/29 06:14:41;;;;;;;4.47;1.75;;;11.50;84.80;;;;;;5097361;28;20110;-70
2022/04/29 06:17:27;;;;;;;4.93;1.73;;;11.50;84.80;;;;;;5068107;28;20513;-70
2022/04/29 06:20:12;;;;;;;7.53;2.00;;;11.50;84.60;;;;;;5092458;28;20089;-67
2022/04/29 06:23:12;;;;;;;11.18;2.10;;;11.50;84.60;;;;;;5094614;28;20109;-66
2022/04/29 06:25:38;;;;;;;6.07;1.90;;;11.50;84.60;;;;;;5112998;28;20035;-66
2022/04/29 06:28:04;;;;;;;6.43;2.20;;;11.50;84.50;;;;;;5096031;28;20020;-66
2022/04/29 06:30:31;;;;;;;4.10;1.70;;;11.50;84.40;;;;;;5092493;28;20494;-66
2022/04/29 06:33:10;;;;;;;4.93;1.40;;;11.50;84.40;;;;;;5099156;28;20020;-66
2022/04/29 06:35:43;;;;;;;8.15;1.70;;;11.50;84.30;;;;;;5098279;28;20043;-66
2022/04/29 06:38:12;;;;;;;6.50;1.52;;;11.60;84.40;;;;;;5094832;28;20031;-66
2022/04/29 06:41:07;;;;;;;3.95;2.03;;;11.50;84.50;;;;;;5039997;28;20061;-66
2022/04/29 06:43:54;;;;;;;6.82;1.75;;;11.50;84.50;;;;;;5093257;28;20115;-66
2022/04/29 06:46:38;;;;;;;2.35;1.65;;;11.50;84.60;;;;;;5106269;28;20043;-67
2022/04/29 06:49:22;;;;;;;5.50;1.73;;;11.50;84.90;;;;;;5098159;28;20085;-70
2022/04/29 06:52:06;;;;;;;4.03;1.83;;;11.50;85.10;;;;;;5095143;28;20043;-67
2022/04/29 06:54:36;;;;;;;4.65;2.50;;;11.50;85.30;;;;;;5110506;28;20110;-67
2022/04/29 06:57:09;;;;;;;4.57;2.20;;;11.50;85.40;;;;;;5097408;28;20546;-67
2022/04/29 06:59:36;;;;;;;4.40;1.80;;;11.50;85.30;;;;;;5108578;28;20055;-67
2022/04/29 07:02:02;;;;;;;6.32;1.92;;;11.50;85.30;;;;;;5109071;28;20742;-67
2022/04/29 07:04:28;;;;;;;5.65;2.20;;;11.50;85.30;;;;;;5101452;28;20028;-67
2022/04/29 07:06:56;;;;;;;7.15;2.22;;;11.60;85.30;;;;;;5087565;28;20032;-67
2022/04/29 07:09:23;;;;;;;5.70;1.70;;;11.60;85.30;;;;;;5107810;28;20024;-67
2022/04/29 07:12:08;;;;;;;2.58;1.40;;;11.60;85.50;;;;;;5111606;28;20585;-67
2022/04/29 07:14:46;;;;;;;3.20;1.33;;;11.60;85.20;;;;;;5112458;28;20040;-67
2022/04/29 07:17:12;;;;;;;2.40;1.30;;;11.60;85.40;;;;;;5106385;28;20894;-67
2022/04/29 07:19:41;;;;;;;4.95;1.40;;;11.60;85.50;;;;;;5093128;28;20526;-67
2022/04/29 07:22:08;;;;;;;6.80;1.50;;;11.70;85.50;;;;;;5106335;28;20035;-67
2022/04/29 07:24:41;;;;;;;4.20;1.73;;;11.60;85.00;;;;;;5093967;28;20024;-67
2022/04/29 07:27:07;;;;;;;3.88;1.65;;;11.70;84.80;;;;;;5114807;28;20038;-67
2022/04/29 07:29:33;;;;;;;5.28;1.45;;;11.70;84.60;;;;;;5099583;28;20031;-67
2022/04/29 07:32:06;;;;;;;5.72;1.38;;;11.70;84.30;;;;;;5102555;28;20382;-68
2022/04/29 07:43:54;;;;;;;3.33;1.77;;;11.80;83.50;;;;;;5100041;28;20035;-67
2022/04/29 07:46:21;;;;;;;1.10;1.10;;;11.80;83.50;;;;;;5093319;28;20036;-68
2022/04/29 07:49:06;;;;;;;4.25;1.40;;;11.80;83.30;;;;;;5099159;28;20047;-67
2022/04/29 07:51:32;;;;;;;4.55;1.58;;;11.90;83.80;;;;;;5102306;28;20027;-67
2022/04/29 07:53:57;;;;;;;7.40;2.00;;;11.90;84.00;;;;;;5096862;28;20038;-66
2022/04/29 07:56:23;;;;;;;10.40;1.77;;;11.90;84.10;;;;;;5111208;27;20028;-67
2022/04/29 07:58:51;;;;;;;5.22;1.60;;;11.90;84.00;;;;;;5096329;28;20187;-67
2022/04/29 08:01:16;;;;;;;6.40;2.10;;;11.90;84.00;;;;;;5090885;28;20652;-66
2022/04/29 08:03:44;;;;;;;5.65;1.80;;;12.00;84.20;;;;;;5097295;28;20113;-66
2022/04/29 08:06:14;;;;;;;4.25;1.80;;;12.00;84.40;;;;;;5097268;28;20028;-66
2022/04/29 08:08:40;;;;;;;5.65;1.70;;;12.00;84.30;;;;;;5101088;28;20032;-67
2022/04/29 08:11:07;;;;;;;4.55;1.70;;;12.10;84.30;;;;;;5101215;28;20391;-66
2022/04/29 08:13:44;;;;;;;8.02;1.80;;;12.10;84.50;;;;;;5097282;28;20024;-67
2022/04/29 08:16:32;;;;;;;3.33;1.38;;;12.10;84.80;;;;;;5098504;28;20391;-66
2022/04/29 08:19:06;;;;;;;7.97;1.48;;;12.10;84.80;;;;;;5100458;28;20368;-66
2022/04/29 08:21:58;;;;;;;3.67;1.58;;;12.10;84.70;;;;;;5092925;28;20491;-67
2022/04/29 08:24:24;;;;;;;6.07;1.77;;;12.10;84.10;;;;;;5099586;28;20061;-67
2022/04/29 08:26:50;;;;;;;5.60;1.60;;;12.10;84.00;;;;;;5094363;28;20484;-67
2022/04/29 08:29:16;;;;;;;9.63;1.90;;;12.20;83.90;;;;;;5102606;28;20023;-67
2022/04/29 08:31:42;;;;;;;7.38;1.75;;;12.20;83.80;;;;;;5099134;28;20036;-67
2022/04/29 08:34:09;;;;;;;4.53;1.55;;;12.20;84.00;;;;;;5094722;28;20051;-66
2022/04/29 08:36:35;;;;;;;3.63;1.75;;;12.20;84.30;;;;;;5098645;28;20505;-67
2022/04/29 08:39:01;;;;;;;6.22;1.67;;;12.20;84.10;;;;;;5095070;28;20011;-68
2022/04/29 08:41:29;;;;;;;3.60;1.55;;;12.20;84.30;;;;;;5097371;28;20103;-68
2022/04/29 08:43:55;;;;;;;3.50;1.75;;;12.30;83.80;;;;;;5113369;27;20031;-68
2022/04/29 08:46:41;;;;;;;10.52;1.83;;;12.20;84.10;;;;;;5087000;28;20030;-68
2022/04/29 08:49:40;;;;;;;7.93;1.90;;;12.30;84.10;;;;;;5091173;28;20092;-68
2022/04/29 08:52:06;;;;;;;4.05;1.55;;;12.30;83.80;;;;;;5090940;28;20056;-68
2022/04/29 09:00:07;;;;;;;4.43;1.88;;;12.40;83.20;;;;;;5093402;28;20472;-70
2022/04/29 09:02:39;;;;;;;5.05;1.63;;;12.40;82.80;;;;;;5098456;28;20114;-71
2022/04/29 09:05:08;;;;;;;4.53;1.80;;;12.40;83.00;;;;;;5093312;28;20483;-69
2022/04/29 09:07:54;;;;;;;5.15;1.65;;;12.40;83.10;;;;;;5096800;28;20584;-68
2022/04/29 09:10:21;;;;;;;3.60;1.45;;;12.40;83.30;;;;;;5095870;28;20028;-68
2022/04/29 09:12:47;;;;;;;10.73;1.80;;;12.50;82.60;;;;;;5091970;28;20032;-69
2022/04/29 09:15:14;;;;;;;4.35;1.73;;;12.50;82.80;;;;;;5093668;28;20109;-68
2022/04/29 09:17:44;;;;;;;8.15;2.08;;;12.50;83.00;;;;;;5092431;28;20101;-69
2022/04/29 09:20:19;;;;;;;10.10;1.98;;;12.60;83.40;;;;;;5088935;28;20048;-66
2022/04/29 09:22:52;;;;;;;3.60;1.55;;;12.60;83.80;;;;;;5093227;28;20561;-66
2022/04/29 09:25:47;;;;;;;8.40;2.28;;;12.60;84.30;;;;;;5065182;28;20124;-66
2022/04/29 09:28:35;;;;;;;7.45;1.80;;;12.60;83.70;;;;;;5095079;28;20050;-67
2022/04/29 09:31:14;;;;;;;3.65;1.55;;;12.60;83.70;;;;;;5092778;28;20380;-67
2022/04/29 09:34:09;;;;;;;3.78;1.25;;;12.60;83.50;;;;;;5099689;28;20032;-67
2022/04/29 09:36:53;;;;;;;6.70;1.95;;;12.60;83.80;;;;;;5097141;28;20036;-67
2022/04/29 09:39:27;;;;;;;6.13;1.60;;;12.60;84.00;;;;;;5092012;28;20509;-67
2022/04/29 09:41:58;;;;;;;4.97;1.80;;;12.70;83.70;;;;;;5090264;28;20115;-67
2022/04/29 09:44:34;;;;;;;5.57;2.10;;;12.70;83.70;;;;;;5091717;28;20028;-67
2022/04/29 09:47:21;;;;;;;6.15;1.95;;;12.70;83.80;;;;;;5089418;28;20030;-67
2022/04/29 09:49:57;;;;;;;4.63;1.88;;;12.70;83.40;;;;;;5090928;28;20027;-68
2022/04/29 09:52:23;;;;;;;5.03;2.15;;;12.70;83.40;;;;;;5095907;28;20040;-68
2022/04/29 09:54:50;;;;;;;15.27;1.65;;;12.70;83.60;;;;;;5110365;28;20027;-68
2022/04/29 09:57:23;;;;;;;4.47;1.65;;;12.70;84.10;;;;;;5089763;28;20032;-67
2022/04/29 09:59:53;;;;;;;6.93;2.35;;;12.70;82.70;;;;;;5104785;28;20048;-67
2022/04/29 10:02:26;;;;;;;4.70;2.10;;;12.70;83.20;;;;;;5111640;28;20126;-66
2022/04/29 10:04:56;;;;;;;2.67;1.65;;;12.80;83.40;;;;;;5094991;28;20032;-66
2022/04/29 10:07:23;;;;;;;3.33;2.10;;;12.80;82.60;;;;;;5111777;28;20467;-66
2022/04/29 10:10:04;;;;;;;7.57;2.10;;;12.80;82.20;;;;;;5110074;28;20019;-67
2022/04/29 10:12:31;;;;;;;10.02;2.40;;;12.80;82.80;;;;;;5110750;28;20048;-70
2022/04/29 10:15:17;;;;;;;3.78;2.40;;;12.80;82.40;;;;;;5101079;28;20149;-67
2022/04/29 10:23:38;;;;;;;3.42;1.80;;;12.90;82.60;;;;;;5111300;28;20466;-67
2022/04/29 10:26:04;;;;;;;3.10;1.70;;;12.90;81.40;;;;;;5110478;28;20028;-67
2022/04/29 10:28:32;;;;;;;8.52;2.10;;;13.00;81.20;;;;;;5111503;28;20043;-69
2022/04/29 10:31:03;;;;;;;3.42;1.77;;;13.00;81.70;;;;;;5104825;28;20039;-67
2022/04/29 10:33:29;;;;;;;4.65;2.03;;;13.00;81.70;;;;;;5090228;28;20024;-67
2022/04/29 10:35:56;;;;;;;12.00;1.80;;;13.00;82.80;;;;;;5090321;28;20046;-67
2022/04/29 10:38:31;;;;;;;4.97;2.10;;;13.00;83.50;;;;;;5095076;28;20110;-67
2022/04/29 10:41:15;;;;;;;11.15;2.40;;;13.00;83.20;;;;;;5091540;28;20055;-67
2022/04/29 10:43:50;;;;;;;2.20;1.27;;;13.00;82.90;;;;;;5092136;28;20111;-67
2022/04/29 10:46:25;;;;;;;3.30;1.73;;;13.00;82.40;;;;;;5097384;28;20081;-66
2022/04/29 10:48:55;;;;;;;5.97;2.28;;;13.10;81.90;;;;;;5091673;28;20065;-67
2022/04/29 10:51:37;;;;;;;5.13;1.95;;;13.10;80.90;;;;;;5097930;28;20463;-67
2022/04/29 10:54:34;;;;;;;5.30;2.40;;;13.10;80.50;;;;;;5095265;28;20065;-67
2022/04/29 10:57:34;;;;;;;4.72;1.80;;;13.20;81.00;;;;;;5094818;28;20447;-67
2022/04/29 11:00:10;;;;;;;5.00;1.85;;;13.10;80.80;;;;;;5095666;28;20135;-67
2022/04/29 11:02:39;;;;;;;2.88;1.48;;;13.10;80.60;;;;;;5095506;28;20119;-67
2022/04/29 11:05:07;;;;;;;6.13;2.33;;;13.20;81.50;;;;;;5099057;28;20046;-67
2022/04/29 11:07:38;;;;;;;2.25;1.15;;;13.20;80.70;;;;;;5105172;28;20027;-68
2022/04/29 11:10:22;;;;;;;3.70;1.75;;;13.10;81.70;;;;;;5096254;28;20499;-67
2022/04/29 11:13:03;;;;;;;4.90;1.80;;;13.20;82.00;;;;;;5106957;28;20036;-67
2022/04/29 11:15:47;;;;;;;4.53;1.70;;;13.20;79.90;;;;;;5111159;28;20065;-67
2022/04/29 11:18:30;;;;;;;2.47;1.65;;;13.20;80.80;;;;;;5102696;28;20104;-67
2022/04/29 11:20:59;;;;;;;7.60;1.70;;;13.20;80.40;;;;;;5100102;28;20059;-68
2022/04/29 11:26:17;;;;;;;4.68;2.10;;;13.30;80.30;;;;;;5095305;28;20048;-67
2022/04/29 11:28:53;;;;;;;7.30;2.15;;;13.20;80.90;;;;;;5092644;28;20028;-67
2022/04/29 11:31:36;;;;;;;3.63;2.17;;;13.30;81.80;;;;;;5089972;28;20043;-68
2022/04/29 11:34:11;;;;;;;6.65;2.03;;;13.30;82.20;;;;;;5105445;28;20928;-67
2022/04/29 11:36:38;;;;;;;;;;;13.30;82.20;;;;;;5095342;28;20035;-68
2022/04/29 11:39:17;;;;;;;5.00;2.40;;;13.40;84.00;;;;;;5090114;28;19954;-67
2022/04/29 11:41:56;;;;;;;8.65;2.47;;;13.30;83.20;;;;;;5089961;28;20857;-67
2022/04/29 11:44:53;;;;;;;5.07;1.67;;;13.30;82.20;;;;;;5087691;28;20750;-67
2022/04/29 11:47:31;;;;;;;11.45;2.75;;;13.40;82.90;;;;;;5092585;28;20486;-67
2022/04/29 11:49:59;;;;;;;7.32;2.38;;;13.40;83.20;;;;;;5100898;28;20036;-67
2022/04/29 11:52:26;;;;;;;6.28;2.30;;;13.40;83.00;;;;;;5104778;28;20028;-68
2022/04/29 11:54:56;;;;;;;4.80;1.80;;;13.40;82.90;;;;;;5103316;28;20143;-67
2022/04/29 11:57:23;;;;;;;5.25;2.03;;;13.40;82.90;;;;;;5103607;28;20740;-67
2022/04/29 11:59:49;;;;;;;4.13;2.03;;;13.50;82.80;;;;;;5106790;28;20036;-67
2022/04/29 12:02:17;;;;;;;3.70;1.73;;;13.50;82.90;;;;;;5103977;28;20047;-67
2022/04/29 12:04:56;;;;;;;7.32;2.15;;;13.50;82.90;;;;;;5106631;28;20102;-67
2022/04/29 12:07:27;;;;;;;9.00;2.30;;;13.50;82.60;;;;;;5104340;28;20039;-67
2022/04/29 12:09:55;;;;;;;6.28;1.80;;;13.50;82.20;;;;;;5102752;28;20054;-67
2022/04/29 12:12:28;;;;;;;5.28;2.00;;;13.50;82.50;;;;;;5105759;28;20360;-67
2022/04/29 12:14:55;;;;;;;4.95;1.65;;;13.60;82.20;;;;;;5101431;28;20019;-67
2022/04/29 12:17:35;;;;;;;2.55;1.70;;;13.60;82.60;;;;;;5100165;28;20048;-70
2022/04/29 12:20:02;;;;;;;5.97;1.90;;;13.70;83.00;;;;;;5098041;28;20036;-70
2022/04/29 12:22:29;;;;;;;4.30;1.60;;;13.70;83.60;;;;;;5103527;28;20047;-70
2022/04/29 12:24:55;;;;;;;7.03;1.80;;;13.70;82.40;;;;;;5103413;28;20538;-71
2022/04/29 12:27:29;;;;;;;9.43;3.08;;;13.70;81.30;;;;;;5107351;28;20032;-72
2022/04/29 12:35:28;;;;;;;3.90;1.50;;;13.80;80.80;;;;;;5108364;28;20035;-67
2022/04/29 12:37:55;;;;;;;5.70;1.88;;;13.80;80.00;;;;;;5099922;28;20028;-71
2022/04/29 12:40:30;;;;;;;7.57;2.05;;;13.80;80.60;;;;;;5109178;28;20032;-71
2022/04/29 12:43:12;;;;;;;4.28;1.73;;;13.80;79.30;;;;;;5106709;28;20135;-70
2022/04/29 12:45:38;;;;;;;4.90;1.40;;;13.80;80.10;;;;;;5099069;28;20047;-68
2022/04/29 12:48:34;;;;;;;3.60;1.85;;;13.90;79.20;;;;;;5105531;28;20087;-68
2022/04/29 12:51:00;;;;;;;4.97;1.95;;;13.90;80.20;;;;;;5108256;28;20035;-68
2022/04/29 12:53:30;;;;;;;3.08;1.63;;;13.90;80.50;;;;;;5105320;28;20035;-68
2022/04/29 12:55:56;;;;;;;5.60;2.10;;;13.90;80.50;;;;;;5109277;28;20302;-68
2022/04/29 12:58:34;;;;;;;6.07;1.95;;;13.90;80.80;;;;;;5105646;28;20052;-69
2022/04/29 13:01:06;;;;;;;5.78;1.85;;;13.90;79.90;;;;;;5100821;28;20039;-67
2022/04/29 13:03:54;;;;;;;5.20;2.00;;;14.00;80.40;;;;;;5102258;28;20399;-67
2022/04/29 13:06:40;;;;;;;3.75;1.83;;;14.10;80.20;;;;;;5098585;28;20027;-68
2022/04/29 13:09:05;;;;;;;5.65;2.10;;;14.00;81.70;;;;;;5099887;28;20042;-68
2022/04/29 13:11:32;;;;;;;7.68;2.17;;;14.00;82.10;;;;;;5099931;28;20423;-69
2022/04/29 13:14:01;;;;;;;7.03;1.90;;;14.00;80.80;;;;;;5099760;28;20024;-68
2022/04/29 13:16:27;;;;;;;6.45;2.03;;;14.00;81.50;;;;;;5098441;28;20482;-67
2022/04/29 13:18:53;;;;;;;3.00;1.50;;;14.10;81.30;;;;;;5096777;28;20032;-68
2022/04/29 13:21:19;;;;;;;6.40;2.25;;;14.10;81.30;;;;;;5100883;28;20138;-68
2022/04/29 13:23:48;;;;;;;12.68;1.95;;;14.20;80.50;;;;;;5100720;28;20023;-68
2022/04/29 13:26:27;;;;;;;3.50;2.10;;;14.10;79.30;;;;;;5101455;28;20538;-68
2022/04/29 13:28:53;;;;;;;5.75;2.22;;;14.20;78.90;;;;;;5096304;28;20089;-68
2022/04/29 13:31:19;;;;;;;4.55;1.90;;;14.20;78.30;;;;;;5099270;28;20028;-68
2022/04/29 13:33:45;;;;;;;4.05;2.20;;;14.20;78.30;;;;;;5101403;28;20386;-68
2022/04/29 13:36:11;;;;;;;7.82;2.22;;;14.20;79.10;;;;;;5098263;28;20490;-67
2022/04/29 13:38:37;;;;;;;8.65;2.28;;;14.30;79.30;;;;;;5100085;28;20036;-68
2022/04/29 13:41:04;;;;;;;4.75;1.77;;;14.30;79.50;;;;;;5098036;28;20031;-68
2022/04/29 13:43:30;;;;;;;3.28;1.90;;;14.30;80.50;;;;;;5094803;28;20441;-68
2022/04/29 13:45:58;;;;;;;5.70;2.30;;;14.30;80.30;;;;;;5099621;28;20032;-68
2022/04/29 13:48:24;;;;;;;7.25;2.38;;;14.30;80.20;;;;;;5101336;28;20043;-68